createdAt,value
2023-03-22T00:02:08.131Z,10.77
2023-03-22T00:04:34.622Z,11.09
2023-03-22T00:07:01.318Z,11.10
2023-03-22T00:09:27.735Z,11.14
2023-03-22T00:11:54.340Z,11.06
2023-03-22T00:14:21.113Z,10.96
2023-03-22T00:16:49.128Z,10.99
2023-03-22T00:19:17.412Z,11.26
2023-03-22T00:21:44.675Z,11.30
2023-03-22T00:24:11.095Z,10.87
2023-03-22T00:26:37.826Z,11.26
2023-03-22T00:29:04.407Z,11.37
2023-03-22T00:31:33.918Z,11.19
2023-03-22T00:34:00.582Z,11.24
2023-03-22T00:36:27.031Z,11.36
2023-03-22T00:38:53.454Z,10.88
2023-03-22T00:41:24.045Z,11.26
2023-03-22T00:43:51.711Z,11.24
2023-03-22T00:46:20.554Z,11.23
2023-03-22T00:48:47.314Z,11.25
2023-03-22T00:51:15.504Z,11.25
2023-03-22T00:53:43.472Z,10.86
2023-03-22T00:56:14.521Z,11.32
2023-03-22T00:58:42.167Z,10.87
2023-03-22T01:01:09.154Z,11.20
2023-03-22T01:03:35.879Z,11.10
2023-03-22T01:06:02.548Z,11.43
2023-03-22T01:08:33.250Z,11.43
2023-03-22T01:11:01.109Z,11.45
2023-03-22T01:13:28.111Z,11.48
2023-03-22T01:15:54.561Z,11.30
2023-03-22T01:18:22.322Z,11.26
2023-03-22T01:20:48.814Z,11.56
2023-03-22T01:23:15.297Z,11.60
2023-03-22T01:25:41.900Z,11.43
2023-03-22T01:28:08.712Z,11.63
2023-03-22T01:30:35.513Z,11.63
2023-03-22T01:33:02.178Z,11.24
2023-03-22T01:35:28.961Z,11.69
2023-03-22T01:37:55.518Z,11.62
2023-03-22T01:40:22.097Z,11.71
2023-03-22T01:42:48.659Z,11.71
2023-03-22T01:45:15.392Z,11.72
2023-03-22T01:47:46.064Z,11.75
2023-03-22T01:50:13.022Z,11.56
2023-03-22T01:52:41.305Z,11.72
2023-03-22T01:55:11.940Z,11.42
2023-03-22T01:57:39.730Z,11.73
2023-03-22T02:00:10.926Z,11.45
2023-03-22T02:02:37.464Z,11.62
2023-03-22T02:05:04.626Z,11.49
2023-03-22T02:07:31.874Z,11.55
2023-03-22T02:10:01.492Z,11.54
2023-03-22T02:12:59.527Z,11.83
2023-03-22T02:15:55.848Z,11.78
2023-03-22T02:18:48.036Z,11.78
2023-03-22T02:21:23.796Z,11.74
2023-03-22T02:24:08.800Z,11.73
2023-03-22T02:26:47.029Z,11.69
2023-03-22T02:29:21.929Z,11.70
2023-03-22T02:32:25.494Z,11.73
2023-03-22T02:35:13.816Z,11.72
2023-03-22T02:37:43.214Z,11.70
2023-03-22T02:40:21.722Z,11.70
2023-03-22T02:43:01.236Z,11.71
2023-03-22T02:45:39.008Z,11.73
2023-03-22T02:48:14.674Z,11.56
2023-03-22T02:50:48.893Z,11.73
2023-03-22T02:53:27.713Z,11.18
2023-03-22T02:56:13.497Z,11.80
2023-03-22T02:58:46.026Z,11.47
2023-03-22T03:01:21.261Z,11.70
2023-03-22T03:03:50.786Z,11.61
2023-03-22T03:06:21.621Z,11.34
2023-03-22T03:08:50.846Z,11.80
2023-03-22T03:11:18.038Z,11.82
2023-03-22T03:13:47.741Z,11.71
2023-03-22T03:16:20.247Z,11.36
2023-03-22T03:19:00.909Z,11.90
2023-03-22T03:22:23.106Z,11.95
2023-03-22T03:25:06.755Z,11.63
2023-03-22T03:27:46.206Z,11.95
2023-03-22T03:30:27.120Z,11.97
2023-03-22T03:33:09.365Z,11.98
2023-03-22T03:35:46.529Z,11.95
2023-03-22T03:38:18.589Z,11.99
2023-03-22T03:40:50.307Z,11.94
2023-03-22T03:43:18.058Z,11.84
2023-03-22T03:45:45.829Z,11.54
2023-03-22T03:48:20.185Z,11.82
2023-03-22T03:50:50.838Z,11.87
2023-03-22T03:53:17.289Z,11.70
2023-03-22T03:55:44.032Z,11.73
2023-03-22T03:58:10.789Z,11.87
2023-03-22T04:00:38.181Z,11.75
2023-03-22T04:03:05.881Z,11.60
2023-03-22T04:05:33.108Z,11.41
2023-03-22T04:07:59.970Z,11.56
2023-03-22T04:10:26.481Z,11.81
2023-03-22T04:12:53.072Z,11.82
2023-03-22T04:15:19.508Z,11.62
2023-03-22T04:17:46.713Z,11.72
2023-03-22T04:20:13.820Z,11.54
2023-03-22T04:22:41.525Z,11.87
2023-03-22T04:25:14.238Z,11.68
2023-03-22T04:27:42.580Z,11.81
2023-03-22T04:30:18.737Z,11.92
2023-03-22T04:32:49.260Z,11.93
2023-03-22T04:35:16.746Z,11.90
2023-03-22T04:37:43.614Z,11.58
2023-03-22T04:40:17.180Z,11.39
2023-03-22T04:42:44.929Z,11.44
2023-03-22T04:45:13.111Z,11.15
2023-03-22T04:47:39.960Z,11.51
2023-03-22T04:50:07.856Z,11.60
2023-03-22T04:52:34.288Z,11.77
2023-03-22T04:55:01.028Z,11.85
2023-03-22T04:57:27.565Z,11.66
2023-03-22T04:59:54.042Z,11.84
2023-03-22T05:02:20.772Z,11.59
2023-03-22T05:04:47.225Z,11.82
2023-03-22T05:07:13.841Z,11.78
2023-03-22T05:09:40.509Z,11.77
2023-03-22T05:12:07.126Z,11.79
2023-03-22T05:14:33.576Z,11.47
2023-03-22T05:17:00.199Z,11.79
2023-03-22T05:19:26.777Z,11.50
2023-03-22T05:21:58.422Z,11.64
2023-03-22T05:24:25.249Z,11.59
2023-03-22T05:26:53.756Z,11.52
2023-03-22T05:29:21.472Z,11.66
2023-03-22T05:31:48.311Z,11.54
2023-03-22T05:34:15.051Z,11.81
2023-03-22T05:36:41.517Z,11.60
2023-03-22T05:39:08.157Z,11.83
2023-03-22T05:41:36.565Z,11.39
2023-03-22T05:44:04.128Z,11.77
2023-03-22T05:46:31.156Z,11.67
2023-03-22T05:48:57.794Z,11.90
2023-03-22T05:51:25.963Z,11.76
2023-03-22T05:53:53.554Z,11.94
2023-03-22T05:56:25.700Z,11.97
2023-03-22T05:58:52.140Z,11.80
2023-03-22T06:01:21.355Z,12.09
2023-03-22T06:03:48.751Z,11.88
2023-03-22T06:06:16.051Z,11.62
2023-03-22T06:08:43.151Z,11.56
2023-03-22T06:11:10.402Z,12.13
2023-03-22T06:13:37.826Z,12.11
2023-03-22T06:16:05.977Z,11.90
2023-03-22T06:18:33.316Z,11.87
2023-03-22T06:21:00.056Z,12.16
2023-03-22T06:23:27.014Z,11.90
2023-03-22T06:25:53.558Z,12.13
2023-03-22T06:28:20.091Z,11.69
2023-03-22T06:30:46.619Z,12.03
2023-03-22T06:33:13.149Z,12.19
2023-03-22T06:35:39.719Z,12.47
2023-03-22T06:38:06.386Z,12.30
2023-03-22T06:40:32.794Z,12.25
2023-03-22T06:43:02.292Z,12.28
2023-03-22T06:45:33.382Z,12.45
2023-03-22T06:48:01.153Z,12.48
2023-03-22T06:50:28.811Z,12.64
2023-03-22T06:52:55.691Z,12.81
2023-03-22T06:55:22.320Z,12.83
2023-03-22T06:57:48.793Z,12.84
2023-03-22T07:00:16.050Z,12.72
2023-03-22T07:02:42.478Z,12.92
2023-03-22T07:05:09.329Z,12.68
2023-03-22T07:07:35.815Z,12.46
2023-03-22T07:10:02.274Z,12.74
2023-03-22T07:12:28.721Z,12.80
2023-03-22T07:14:55.386Z,13.06
2023-03-22T07:17:21.880Z,13.14
2023-03-22T07:19:48.845Z,13.12
2023-03-22T07:22:15.493Z,12.98
2023-03-22T07:24:53.852Z,12.76
2023-03-22T07:27:23.140Z,12.94
2023-03-22T07:29:49.580Z,13.16
2023-03-22T07:32:16.547Z,13.28
2023-03-22T07:34:43.108Z,13.26
2023-03-22T07:37:09.749Z,12.81
2023-03-22T07:39:36.556Z,13.08
2023-03-22T07:42:03.748Z,13.41
2023-03-22T07:44:30.379Z,13.42
2023-03-22T07:46:57.108Z,12.88
2023-03-22T07:49:23.603Z,13.46
2023-03-22T07:51:50.282Z,13.66
2023-03-22T07:54:32.231Z,13.57
2023-03-22T07:56:59.349Z,13.76
2023-03-22T07:59:25.884Z,13.37
2023-03-22T08:01:52.535Z,13.73
2023-03-22T08:04:20.883Z,13.28
2023-03-22T08:06:47.327Z,13.65
2023-03-22T08:09:13.929Z,13.57
2023-03-22T08:11:40.609Z,13.59
2023-03-22T08:14:07.113Z,13.82
2023-03-22T08:16:33.848Z,13.68
2023-03-22T08:19:01.174Z,13.68
2023-03-22T08:21:27.629Z,13.92
2023-03-22T08:23:54.415Z,13.88
2023-03-22T08:26:22.118Z,13.73
2023-03-22T08:28:48.602Z,13.95
2023-03-22T08:31:17.036Z,13.73
2023-03-22T08:33:44.342Z,14.12
2023-03-22T08:36:13.856Z,14.03
2023-03-22T08:38:42.440Z,13.84
2023-03-22T08:41:09.322Z,14.38
2023-03-22T08:43:35.818Z,14.28
2023-03-22T08:46:02.438Z,14.61
2023-03-22T08:48:30.639Z,14.41
2023-03-22T08:50:58.083Z,14.79
2023-03-22T08:53:24.731Z,14.97
2023-03-22T08:55:51.308Z,14.85
2023-03-22T08:58:19.946Z,15.25
2023-03-22T09:00:49.449Z,15.20
2023-03-22T09:03:17.277Z,15.34
2023-03-22T09:05:43.870Z,15.58
2023-03-22T09:08:18.479Z,15.66
2023-03-22T09:10:51.533Z,15.40
2023-03-22T09:13:18.430Z,15.80
2023-03-22T09:15:47.439Z,15.87
2023-03-22T09:18:14.576Z,15.95
2023-03-22T09:20:41.400Z,15.82
2023-03-22T09:23:08.052Z,16.45
2023-03-22T09:25:34.506Z,16.12
2023-03-22T09:28:01.699Z,15.95
2023-03-22T09:30:28.430Z,16.20
2023-03-22T09:32:54.886Z,16.53
2023-03-22T09:35:21.664Z,16.43
2023-03-22T09:37:49.583Z,16.30
2023-03-22T09:40:19.414Z,16.13
2023-03-22T09:42:50.654Z,16.43
2023-03-22T09:45:22.930Z,16.64
2023-03-22T09:47:54.255Z,16.21
2023-03-22T09:50:23.129Z,16.53
2023-03-22T09:52:50.643Z,16.30
2023-03-22T09:55:37.902Z,16.27
2023-03-22T09:58:17.249Z,16.57
2023-03-22T10:00:48.189Z,16.56
2023-03-22T10:03:26.858Z,16.55
2023-03-22T10:06:02.338Z,16.45
2023-03-22T10:08:58.247Z,16.17
2023-03-22T10:11:54.655Z,16.57
2023-03-22T10:14:42.240Z,16.12
2023-03-22T10:17:13.850Z,16.14
2023-03-22T10:19:57.786Z,16.34
2023-03-22T10:22:32.473Z,15.83
2023-03-22T10:25:01.071Z,15.54
2023-03-22T10:27:30.321Z,16.37
2023-03-22T10:30:09.070Z,16.38
2023-03-22T10:32:57.627Z,16.07
2023-03-22T10:35:25.353Z,16.31
2023-03-22T10:37:54.724Z,16.17
2023-03-22T10:40:27.530Z,16.38
2023-03-22T10:43:03.536Z,16.09
2023-03-22T10:45:33.840Z,16.02
2023-03-22T10:48:34.926Z,16.44
2023-03-22T10:51:02.272Z,16.31
2023-03-22T10:53:49.649Z,16.44
2023-03-22T10:56:20.044Z,16.42
2023-03-22T10:58:48.973Z,15.98
2023-03-22T11:01:25.494Z,16.13
2023-03-22T11:03:56.180Z,16.12
2023-03-22T11:06:32.846Z,16.66
2023-03-22T11:09:02.476Z,16.39
2023-03-22T11:11:31.863Z,16.18
2023-03-22T11:14:11.774Z,16.89
2023-03-22T11:16:58.206Z,16.93
2023-03-22T11:19:28.044Z,16.48
2023-03-22T11:21:57.336Z,16.54
2023-03-22T11:24:26.410Z,16.79
2023-03-22T11:27:06.746Z,16.45
2023-03-22T11:29:46.459Z,16.79
2023-03-22T11:32:36.840Z,16.88
2023-03-22T11:35:26.824Z,16.50
2023-03-22T11:37:55.825Z,16.85
2023-03-22T11:40:28.163Z,16.83
2023-03-22T11:43:09.825Z,16.91
2023-03-22T11:45:41.160Z,16.61
2023-03-22T11:48:17.339Z,16.81
2023-03-22T11:50:45.935Z,16.99
2023-03-22T11:53:16.724Z,16.83
2023-03-22T11:55:44.434Z,16.65
2023-03-22T11:58:26.227Z,16.89
2023-03-22T12:01:02.852Z,16.94
2023-03-22T12:03:36.749Z,16.72
2023-03-22T12:06:16.687Z,16.73
2023-03-22T12:08:49.641Z,16.83
2023-03-22T12:11:28.129Z,16.80
2023-03-22T12:14:12.330Z,16.79
2023-03-22T12:16:49.876Z,16.48
2023-03-22T12:19:37.995Z,16.62
2023-03-22T12:22:12.687Z,16.35
2023-03-22T12:24:40.394Z,16.01
2023-03-22T12:27:18.874Z,16.15
2023-03-22T12:29:59.256Z,16.39
2023-03-22T12:32:30.137Z,16.16
2023-03-22T12:35:09.153Z,16.21
2023-03-22T12:37:42.921Z,16.53
2023-03-22T12:40:28.638Z,16.35
2023-03-22T12:43:06.173Z,16.43
2023-03-22T12:45:39.486Z,16.39
2023-03-22T12:48:20.363Z,16.37
2023-03-22T12:50:56.657Z,16.47
2023-03-22T12:53:28.081Z,15.82
2023-03-22T12:55:56.114Z,16.18
2023-03-22T12:58:25.695Z,16.01
2023-03-22T13:01:22.251Z,15.70
2023-03-22T13:03:54.994Z,15.74
2023-03-22T13:06:54.346Z,15.60
2023-03-22T13:09:37.063Z,15.08
2023-03-22T13:12:28.968Z,15.05
2023-03-22T13:14:58.707Z,14.81
2023-03-22T13:17:25.635Z,14.67
2023-03-22T13:20:07.656Z,14.57
2023-03-22T13:22:37.498Z,14.47
2023-03-22T13:25:12.337Z,14.37
2023-03-22T13:27:51.599Z,13.94
2023-03-22T13:30:26.276Z,14.29
2023-03-22T13:32:56.442Z,14.21
2023-03-22T13:35:56.772Z,14.25
2023-03-22T13:38:25.455Z,14.29
2023-03-22T13:40:51.871Z,14.20
2023-03-22T13:43:29.314Z,14.10
2023-03-22T13:46:01.463Z,14.16
2023-03-22T13:49:04.176Z,14.11
2023-03-22T13:51:34.162Z,14.11
2023-03-22T13:54:13.265Z,14.24
2023-03-22T13:56:57.008Z,14.29
2023-03-22T13:59:27.217Z,14.29
2023-03-22T14:01:53.683Z,14.34
2023-03-22T14:04:46.236Z,14.30
2023-03-22T14:07:37.173Z,14.35
2023-03-22T14:10:13.661Z,14.04
2023-03-22T14:13:01.129Z,14.42
2023-03-22T14:15:32.308Z,14.18
2023-03-22T14:18:03.999Z,14.40
2023-03-22T14:20:35.507Z,14.19
